Time;durP1;ratioP1;P1;durP2;ratioP2;P2;SDS_P1;SDS_P2;PMS_P1;PMS_P2;Temp;Humidity;BMP_temperature;BMP_pressure;BME280_temperature;BME280_humidity;BME280_pressure;Samples;Min_cycle;Max_cycle;Signal;HPM_P1;HPM_P2
2023/07/10 00:01:16;;;;;;;7.68;2.88;;;;;;;19.27;84.85;101912.56;5023693;28;20064;-77
2023/07/10 00:03:41;;;;;;;10.70;2.95;;;;;;;19.22;84.59;101909.47;5030849;28;20025;-77
2023/07/10 00:06:11;;;;;;;11.43;3.28;;;;;;;19.20;84.95;101924.75;5030821;28;20476;-77
2023/07/10 00:08:38;;;;;;;7.13;2.95;;;;;;;19.17;84.99;101922.38;5030453;28;20079;-76
2023/07/10 00:11:05;;;;;;;8.23;2.95;;;;;;;19.12;85.23;101921.97;5029852;28;20096;-77
2023/07/10 00:13:30;;;;;;;8.23;3.22;;;;;;;19.10;85.28;101915.94;5029280;28;20025;-77
2023/07/10 00:15:56;;;;;;;7.78;2.92;;;;;;;19.15;84.95;101920.84;5028140;28;20385;-78
2023/07/10 00:18:22;;;;;;;5.70;2.58;;;;;;;19.11;86.30;101925.63;5024299;28;20033;-78
2023/07/10 00:20:49;;;;;;;12.23;3.00;;;;;;;19.04;88.37;101920.03;5020659;28;20122;-78
2023/07/10 00:23:15;;;;;;;7.97;2.95;;;;;;;19.02;87.69;101923.81;5028123;28;20481;-78
2023/07/10 00:25:42;;;;;;;7.05;2.78;;;;;;;19.05;89.48;101920.88;5029945;28;20037;-79
2023/07/10 00:28:17;;;;;;;6.32;2.90;;;;;;;18.96;88.78;101919.06;5011416;28;20025;-70
2023/07/10 00:30:45;;;;;;;6.72;2.90;;;;;;;18.88;89.95;101916.25;5029444;28;20037;-79
2023/07/10 00:33:12;;;;;;;4.63;2.63;;;;;;;18.93;90.60;101914.00;5029123;28;20044;-79
2023/07/10 00:35:38;;;;;;;5.45;2.58;;;;;;;18.89;90.82;101907.28;5022786;28;20037;-79
2023/07/10 00:38:15;;;;;;;6.45;3.00;;;;;;;18.82;88.83;101908.84;5029213;28;20091;-78
2023/07/10 00:40:46;;;;;;;6.80;2.90;;;;;;;18.73;90.14;101910.50;5029578;28;20099;-70
2023/07/10 00:43:34;;;;;;;7.43;2.83;;;;;;;18.74;89.62;101925.50;5027183;28;20045;-79
2023/07/10 00:46:24;;;;;;;5.60;2.72;;;;;;;18.65;89.98;101927.19;5028215;28;20056;-79
2023/07/10 00:48:58;;;;;;;6.55;2.70;;;;;;;18.65;89.94;101927.19;5018437;28;20048;-79
2023/07/10 00:51:30;;;;;;;8.25;3.22;;;;;;;18.63;90.68;101929.16;5029942;28;20465;-79
2023/07/10 00:53:57;;;;;;;10.68;3.30;;;;;;;18.61;90.33;101924.91;5028099;28;20021;-79
2023/07/10 00:56:26;;;;;;;5.88;2.95;;;;;;;18.61;91.10;101919.59;5037524;28;20112;-78
2023/07/10 00:58:52;;;;;;;5.72;2.80;;;;;;;18.57;91.10;101912.84;5028496;28;20104;-78
2023/07/10 01:01:23;;;;;;;6.47;2.78;;;;;;;18.57;90.79;101918.19;5028492;28;20189;-78
2023/07/10 01:03:51;;;;;;;7.75;3.20;;;;;;;18.48;90.61;101919.88;5029069;28;20022;-78
2023/07/10 01:06:26;;;;;;;8.48;2.97;;;;;;;18.51;90.79;101919.59;5029389;28;20048;-78
2023/07/10 01:08:59;;;;;;;4.90;2.90;;;;;;;18.50;90.79;101925.91;5023118;28;20034;-78
2023/07/10 01:11:25;;;;;;;5.82;3.00;;;;;;;18.49;90.81;101926.88;5027834;28;20040;-78
2023/07/10 01:13:53;;;;;;;7.32;2.80;;;;;;;18.47;91.42;101923.50;5028463;28;20033;-78
2023/07/10 01:16:20;;;;;;;8.05;2.75;;;;;;;18.48;91.75;101915.38;5027998;28;20128;-78
2023/07/10 01:18:45;;;;;;;6.15;3.00;;;;;;;18.45;91.22;101930.81;5027789;28;20009;-79
2023/07/10 01:21:25;;;;;;;6.97;2.70;;;;;;;18.43;91.67;101924.78;5028499;28;20036;-78
2023/07/10 01:23:51;;;;;;;5.53;2.65;;;;;;;18.35;91.05;101911.28;5027798;28;20025;-79
2023/07/10 01:26:17;;;;;;;5.65;3.10;;;;;;;18.39;91.65;101921.50;5014830;28;20034;-79
2023/07/10 01:28:43;;;;;;;5.90;2.80;;;;;;;18.34;91.37;101923.75;5025618;28;20542;-79
2023/07/10 01:31:12;;;;;;;8.35;2.42;;;;;;;18.33;91.34;101910.56;5027988;28;20033;-79
2023/07/10 01:33:46;;;;;;;6.63;2.72;;;;;;;18.37;91.82;101912.81;5029089;28;20021;-80
2023/07/10 01:36:15;;;;;;;6.22;2.70;;;;;;;18.28;91.24;101907.47;5060803;28;20056;-79
2023/07/10 01:38:48;;;;;;;5.82;2.83;;;;;;;18.31;91.71;101901.88;5028290;28;20056;-79
2023/07/10 01:41:32;;;;;;;4.25;2.70;;;;;;;18.38;91.76;101905.66;5028078;28;20370;-79
2023/07/10 01:43:57;;;;;;;7.93;3.25;;;;;;;18.30;92.28;101910.84;5019795;28;20037;-79
2023/07/10 01:46:26;;;;;;;5.38;2.90;;;;;;;18.31;91.50;101913.38;5026609;28;20037;-79
2023/07/10 01:48:59;;;;;;;6.05;2.92;;;;;;;18.35;91.85;101924.59;5028945;28;20498;-79
2023/07/10 01:51:24;;;;;;;5.53;2.85;;;;;;;18.29;91.29;101925.16;5028373;28;20029;-79
2023/07/10 01:53:50;;;;;;;5.68;3.25;;;;;;;18.27;91.49;101927.09;5028541;28;20036;-79
2023/07/10 01:56:19;;;;;;;7.05;3.13;;;;;;;18.26;92.15;101922.75;5027387;28;20486;-78
2023/07/10 01:58:45;;;;;;;5.38;3.28;;;;;;;18.21;92.49;101922.31;5028276;28;20104;-80
2023/07/10 02:01:10;;;;;;;7.55;3.10;;;;;;;18.28;92.36;101913.66;5027607;28;20033;-81
2023/07/10 02:03:36;;;;;;;5.05;3.03;;;;;;;18.20;92.86;101915.31;5014343;28;20030;-80
2023/07/10 02:06:01;;;;;;;9.73;3.28;;;;;;;18.16;92.34;101922.75;5028109;28;20051;-80
2023/07/10 02:08:27;;;;;;;7.25;3.28;;;;;;;18.08;93.17;101912.78;5028990;28;20697;-71
2023/07/10 02:10:53;;;;;;;7.82;3.33;;;;;;;18.04;93.28;101913.19;5028939;28;20029;-80
2023/07/10 02:13:18;;;;;;;5.90;3.08;;;;;;;18.02;93.68;101918.66;5027291;28;20414;-80
2023/07/10 02:15:44;;;;;;;7.05;2.95;;;;;;;18.00;93.76;101920.56;5027826;28;20397;-80
2023/07/10 02:18:09;;;;;;;8.30;3.35;;;;;;;17.97;94.03;101926.16;5020095;28;20049;-80
2023/07/10 02:20:34;;;;;;;6.53;3.28;;;;;;;17.95;94.67;101921.97;5023708;28;20478;-78
2023/07/10 02:23:00;;;;;;;8.05;3.25;;;;;;;17.95;95.10;101932.59;5026406;28;20453;-78
2023/07/10 02:25:25;;;;;;;7.00;2.78;;;;;;;17.92;95.28;101935.53;5027938;28;20017;-77
2023/07/10 02:27:50;;;;;;;4.45;2.80;;;;;;;17.85;95.82;101940.56;5027027;28;20116;-80
2023/07/10 02:30:17;;;;;;;6.05;3.20;;;;;;;17.80;96.49;101940.13;5028514;28;20123;-80
2023/07/10 02:32:42;;;;;;;4.93;2.90;;;;;;;17.84;96.83;101954.84;5031528;28;20105;-80
2023/07/10 02:35:08;;;;;;;5.97;3.28;;;;;;;17.83;97.06;101951.34;5029775;28;20721;-80
2023/07/10 02:37:33;;;;;;;7.18;3.97;;;;;;;17.79;97.80;101949.09;5024994;28;20049;-80
2023/07/10 02:39:59;;;;;;;7.25;4.30;;;;;;;17.75;98.62;101937.03;5031643;28;20029;-80
2023/07/10 02:42:24;;;;;;;9.27;4.85;;;;;;;17.67;99.27;101939.53;5030935;28;20516;-80
2023/07/10 02:44:49;;;;;;;10.38;5.13;;;;;;;17.69;99.14;101946.41;5030643;28;20436;-79
2023/07/10 02:47:15;;;;;;;11.07;5.70;;;;;;;17.65;99.70;101936.13;5031174;28;20061;-79
2023/07/10 02:49:40;;;;;;;8.85;5.25;;;;;;;17.62;100.00;101936.38;5031159;28;20021;-78
2023/07/10 02:52:06;;;;;;;10.82;5.97;;;;;;;17.60;100.00;101944.47;5032569;28;20086;-79
2023/07/10 02:54:31;;;;;;;10.45;5.72;;;;;;;17.52;100.00;101945.13;5035967;28;20074;-78
2023/07/10 02:56:57;;;;;;;8.52;5.65;;;;;;;17.59;100.00;101941.94;5035482;28;20409;-78
2023/07/10 02:59:28;;;;;;;9.27;5.93;;;;;;;17.57;100.00;101954.53;5032315;28;20393;-79
2023/07/10 03:01:54;;;;;;;12.63;6.80;;;;;;;17.49;100.00;101961.38;5031200;28;20140;-79
2023/07/10 03:04:20;;;;;;;12.75;6.47;;;;;;;17.53;100.00;101954.81;5031836;28;20033;-79
2023/07/10 03:06:48;;;;;;;14.82;8.00;;;;;;;17.43;100.00;101959.22;5031707;28;20056;-79
2023/07/10 03:09:15;;;;;;;11.85;8.20;;;;;;;17.45;100.00;101953.78;5028424;28;20032;-78
2023/07/10 03:11:40;;;;;;;12.48;8.48;;;;;;;17.40;100.00;101954.19;5031818;28;20032;-79
2023/07/10 03:14:06;;;;;;;9.63;7.45;;;;;;;17.33;100.00;101958.34;5032018;28;20033;-79
2023/07/10 03:16:32;;;;;;;12.35;8.60;;;;;;;17.31;100.00;101970.94;5030201;28;20026;-79
2023/07/10 03:18:57;;;;;;;15.40;8.70;;;;;;;17.28;100.00;101971.19;5030560;28;20084;-79
2023/07/10 03:21:23;;;;;;;12.63;8.30;;;;;;;17.34;100.00;101970.66;5030841;28;20049;-79
2023/07/10 03:23:50;;;;;;;12.43;7.88;;;;;;;17.31;100.00;101978.91;5029886;28;20493;-79
2023/07/10 03:26:15;;;;;;;12.63;8.68;;;;;;;17.24;100.00;101977.75;5021924;28;20022;-78
2023/07/10 03:28:41;;;;;;;10.68;8.23;;;;;;;17.28;100.00;101988.97;5034501;28;20034;-70
2023/07/10 03:31:06;;;;;;;13.93;8.07;;;;;;;17.27;100.00;101987.28;5028505;28;20056;-79
2023/07/10 03:33:32;;;;;;;11.07;8.55;;;;;;;17.23;100.00;101978.72;5030423;28;20053;-79
2023/07/10 03:36:02;;;;;;;12.93;8.52;;;;;;;17.20;100.00;101978.94;5029441;28;20495;-79
2023/07/10 03:38:27;;;;;;;10.50;8.05;;;;;;;17.23;100.00;101984.03;5029629;28;20040;-80
2023/07/10 03:40:55;;;;;;;10.45;8.40;;;;;;;17.18;100.00;101981.72;5030327;28;20508;-80
2023/07/10 03:43:21;;;;;;;12.23;8.07;;;;;;;17.18;100.00;101976.41;5023259;28;20029;-80
2023/07/10 03:45:46;;;;;;;10.57;8.10;;;;;;;17.14;100.00;101977.66;5029427;28;20061;-80
2023/07/10 03:48:12;;;;;;;11.27;8.23;;;;;;;17.16;100.00;101982.84;5030154;28;20038;-80
2023/07/10 03:50:37;;;;;;;11.73;7.97;;;;;;;17.14;100.00;101985.63;5028570;28;20029;-78
2023/07/10 03:53:03;;;;;;;10.82;8.23;;;;;;;17.12;100.00;101982.25;5029293;28;20025;-78
2023/07/10 03:55:28;;;;;;;11.05;8.50;;;;;;;17.08;100.00;101987.94;5017214;28;20051;-78
2023/07/10 03:57:53;;;;;;;10.05;8.30;;;;;;;17.05;100.00;101993.53;5029428;28;20029;-80
2023/07/10 04:00:19;;;;;;;9.20;7.93;;;;;;;17.04;100.00;101995.34;5024291;28;20018;-80
2023/07/10 04:02:44;;;;;;;12.80;8.70;;;;;;;17.06;100.00;102000.53;5029889;28;20087;-80
2023/07/10 04:05:09;;;;;;;13.55;8.25;;;;;;;17.00;100.00;102004.56;5029899;28;20029;-79
2023/07/10 04:07:35;;;;;;;14.43;8.77;;;;;;;16.96;100.00;101999.63;5031075;28;20025;-79
2023/07/10 04:10:01;;;;;;;11.48;8.65;;;;;;;17.10;100.00;102004.63;5029380;28;20568;-79
2023/07/10 04:12:26;;;;;;;11.35;9.10;;;;;;;17.18;100.00;102010.16;5030266;28;20119;-79
2023/07/10 04:14:51;;;;;;;12.85;9.00;;;;;;;17.60;100.00;102007.50;5030746;28;20192;-79
2023/07/10 04:17:17;;;;;;;12.98;8.95;;;;;;;18.21;98.75;102010.25;5022373;28;20029;-79
2023/07/10 04:19:42;;;;;;;10.90;9.07;;;;;;;18.71;95.13;102000.44;5029761;28;20425;-79
2023/07/10 04:22:08;;;;;;;13.52;9.07;;;;;;;19.07;91.88;101999.78;5030039;28;20028;-79
2023/07/10 04:24:33;;;;;;;11.75;9.00;;;;;;;19.70;88.37;101999.31;5025439;28;20026;-79
2023/07/10 04:26:59;;;;;;;11.00;8.80;;;;;;;20.08;86.12;102005.53;5009214;28;20026;-79
2023/07/10 04:29:24;;;;;;;13.07;9.02;;;;;;;19.59;86.97;102002.13;5009935;28;20053;-79
2023/07/10 04:31:50;;;;;;;15.90;8.80;;;;;;;19.21;88.88;102000.31;5008467;28;20101;-79
2023/07/10 04:34:15;;;;;;;12.80;9.10;;;;;;;18.93;90.71;102002.03;5009619;28;20037;-79
2023/07/10 04:36:42;;;;;;;12.93;9.85;;;;;;;18.86;91.97;102003.56;5028603;28;20033;-79
2023/07/10 04:39:09;;;;;;;13.48;10.00;;;;;;;18.49;93.82;102001.50;5029747;28;20028;-79
2023/07/10 04:41:34;;;;;;;14.25;9.82;;;;;;;18.36;94.57;102000.88;5028703;28;20025;-79
2023/07/10 04:44:01;;;;;;;13.13;9.93;;;;;;;18.30;95.18;102006.75;5029147;28;20029;-78
2023/07/10 04:46:26;;;;;;;12.65;10.32;;;;;;;18.21;96.22;101999.59;5029448;28;20486;-79
2023/07/10 04:48:52;;;;;;;12.63;8.90;;;;;;;17.98;96.52;102015.75;5026736;28;20083;-79
2023/07/10 04:51:18;;;;;;;12.63;10.48;;;;;;;17.84;98.30;102010.78;5010411;28;20061;-79
2023/07/10 04:53:44;;;;;;;14.35;9.70;;;;;;;17.90;98.33;102009.41;5017821;28;20021;-79
2023/07/10 04:56:11;;;;;;;12.88;9.70;;;;;;;17.92;98.32;102024.25;5043464;28;20123;-71
2023/07/10 04:58:46;;;;;;;12.77;10.57;;;;;;;17.79;99.25;102027.16;5049764;28;20036;-79
2023/07/10 05:01:11;;;;;;;12.50;10.18;;;;;;;17.68;100.00;102026.38;5030021;28;20087;-79
2023/07/10 05:03:37;;;;;;;14.52;10.75;;;;;;;17.62;100.00;102018.91;5030340;28;20433;-79
2023/07/10 05:06:02;;;;;;;13.18;10.52;;;;;;;17.62;100.00;102021.56;5029847;28;20049;-79
2023/07/10 05:08:29;;;;;;;16.40;11.40;;;;;;;17.50;100.00;102029.59;5022008;28;20033;-79
2023/07/10 05:10:54;;;;;;;14.48;10.82;;;;;;;17.57;100.00;102029.91;5029484;28;20384;-79
2023/07/10 05:13:27;;;;;;;14.10;10.63;;;;;;;17.64;100.00;102035.56;5029741;28;20113;-79
2023/07/10 05:15:55;;;;;;;14.43;12.13;;;;;;;17.59;100.00;102040.41;5028618;28;20021;-79
2023/07/10 05:18:21;;;;;;;13.90;10.60;;;;;;;17.60;100.00;102039.44;5029938;28;20397;-79
2023/07/10 05:20:48;;;;;;;14.10;11.20;;;;;;;17.59;100.00;102038.59;5028925;28;20026;-79
2023/07/10 05:23:15;;;;;;;17.83;11.27;;;;;;;17.59;100.00;102037.75;5028478;28;20033;-79
2023/07/10 05:25:40;;;;;;;15.63;10.48;;;;;;;17.57;100.00;102039.72;5021917;28;20029;-79
2023/07/10 05:28:06;;;;;;;18.40;11.13;;;;;;;17.55;100.00;102042.50;5028841;28;20075;-79
2023/07/10 05:30:35;;;;;;;15.30;10.43;;;;;;;17.58;100.00;102046.72;5028224;28;20022;-79
2023/07/10 05:33:03;;;;;;;15.52;9.80;;;;;;;17.59;100.00;102048.41;5028674;28;20381;-71
2023/07/10 05:35:28;;;;;;;12.60;9.52;;;;;;;17.68;100.00;102047.69;5029050;28;20036;-79
2023/07/10 05:37:53;;;;;;;11.40;9.23;;;;;;;17.74;100.00;102049.81;5027941;28;20029;-79
2023/07/10 05:40:19;;;;;;;15.00;9.85;;;;;;;17.77;100.00;102046.88;5021942;28;20030;-79
2023/07/10 05:42:44;;;;;;;13.77;8.95;;;;;;;17.79;100.00;102042.28;5027730;28;20104;-79
2023/07/10 05:45:09;;;;;;;12.82;8.40;;;;;;;17.91;99.94;102038.56;5026069;28;20382;-79
2023/07/10 05:47:35;;;;;;;10.88;7.93;;;;;;;17.95;99.48;102044.47;5029161;28;20417;-79
2023/07/10 05:50:00;;;;;;;12.32;7.93;;;;;;;17.95;98.51;102036.47;5028334;28;20889;-79
2023/07/10 05:52:26;;;;;;;12.55;7.68;;;;;;;17.97;98.64;102038.03;5027858;28;20022;-79
2023/07/10 05:54:52;;;;;;;11.38;7.50;;;;;;;18.03;98.46;102036.69;5039145;28;20112;-79
2023/07/10 05:57:17;;;;;;;12.90;7.28;;;;;;;18.07;98.50;102044.25;5014774;28;20120;-79
2023/07/10 05:59:43;;;;;;;10.90;6.95;;;;;;;18.11;98.23;102040.34;5008147;28;20126;-79
2023/07/10 06:02:11;;;;;;;10.05;6.60;;;;;;;18.14;96.97;102040.09;5025353;28;20388;-79
2023/07/10 06:04:38;;;;;;;12.20;6.80;;;;;;;18.15;96.59;102044.44;5027990;28;20024;-78
2023/07/10 06:07:05;;;;;;;11.55;6.28;;;;;;;18.19;95.87;102049.50;5031770;28;20026;-79
2023/07/10 06:09:30;;;;;;;10.63;6.40;;;;;;;18.21;96.59;102044.88;5032799;28;20072;-79
2023/07/10 06:11:56;;;;;;;9.30;6.22;;;;;;;18.23;96.47;102040.25;5030458;28;20104;-79
2023/07/10 06:14:21;;;;;;;10.43;6.07;;;;;;;18.26;95.10;102040.00;5017143;28;20060;-79
2023/07/10 06:16:46;;;;;;;7.63;6.07;;;;;;;18.31;95.15;102041.25;5012272;28;20623;-79
2023/07/10 06:19:12;;;;;;;9.40;6.65;;;;;;;18.36;95.17;102038.19;5011624;28;20105;-80
2023/07/10 06:21:37;;;;;;;10.00;6.25;;;;;;;18.37;93.28;102045.22;5012989;28;20022;-80
2023/07/10 06:24:04;;;;;;;11.90;6.63;;;;;;;18.41;94.12;102051.94;5026071;28;20036;-79
2023/07/10 06:26:29;;;;;;;11.98;6.20;;;;;;;18.47;93.36;102046.13;5030920;28;20064;-79
2023/07/10 06:28:55;;;;;;;10.30;6.78;;;;;;;18.52;92.78;102056.38;5031880;28;20068;-80
2023/07/10 06:31:21;;;;;;;10.85;5.57;;;;;;;18.56;90.70;102055.09;5030856;28;20037;-79
2023/07/10 06:33:46;;;;;;;9.23;6.22;;;;;;;18.57;92.01;102052.31;5024382;28;20032;-79
2023/07/10 06:36:11;;;;;;;10.65;5.97;;;;;;;18.60;91.83;102057.38;5032538;28;20029;-79
2023/07/10 06:38:38;;;;;;;9.57;5.50;;;;;;;18.69;91.35;102061.06;5032641;28;20099;-79
2023/07/10 06:41:05;;;;;;;8.50;5.40;;;;;;;18.71;90.93;102059.94;5031140;28;20030;-78
2023/07/10 06:43:31;;;;;;;6.88;4.93;;;;;;;18.79;90.17;102057.44;5026045;28;20497;-79
2023/07/10 06:45:56;;;;;;;7.65;4.72;;;;;;;18.87;88.09;102053.25;5029833;28;20065;-79
2023/07/10 06:48:22;;;;;;;11.43;4.65;;;;;;;18.90;84.66;102053.81;5024304;28;20025;-79
2023/07/10 06:50:52;;;;;;;7.45;4.20;;;;;;;18.95;84.28;102056.06;5010806;28;20024;-79
2023/07/10 06:53:17;;;;;;;10.38;4.70;;;;;;;18.99;84.41;102047.66;5031562;28;20036;-80
2023/07/10 06:55:44;;;;;;;8.27;4.10;;;;;;;19.06;82.21;102053.28;5041591;28;20429;-79
2023/07/10 06:58:12;;;;;;;8.20;4.20;;;;;;;19.15;83.19;102062.25;5032057;28;20029;-71
2023/07/10 07:00:40;;;;;;;9.40;4.00;;;;;;;19.23;84.88;102068.59;5031618;28;20400;-79
2023/07/10 07:03:07;;;;;;;8.60;3.80;;;;;;;19.29;82.13;102065.38;5028438;28;20124;-79
2023/07/10 07:05:33;;;;;;;8.90;3.47;;;;;;;19.39;80.87;102062.69;5028524;28;20382;-79
2023/07/10 07:07:58;;;;;;;9.35;3.60;;;;;;;19.48;79.40;102058.34;5028709;28;20037;-79
2023/07/10 07:10:24;;;;;;;12.77;4.25;;;;;;;19.60;79.36;102063.41;5030243;28;20427;-78
2023/07/10 07:12:49;;;;;;;9.77;3.78;;;;;;;19.70;77.86;102052.72;5030743;28;20049;-79
2023/07/10 07:15:14;;;;;;;8.68;3.63;;;;;;;19.94;77.30;102063.75;5029122;28;20021;-79
2023/07/10 07:17:40;;;;;;;8.93;3.35;;;;;;;20.26;77.19;102059.88;5030124;28;20040;-78
2023/07/10 07:20:10;;;;;;;8.32;4.32;;;;;;;20.52;75.19;102071.63;5030345;28;20474;-78
2023/07/10 07:22:36;;;;;;;12.80;4.65;;;;;;;20.83;74.16;102068.63;5007526;28;20490;-79
2023/07/10 07:25:02;;;;;;;9.18;3.97;;;;;;;21.06;72.88;102064.50;5023032;28;20095;-78
2023/07/10 07:27:31;;;;;;;11.93;4.28;;;;;;;21.34;71.21;102067.16;5031088;28;20195;-78
2023/07/10 07:29:56;;;;;;;11.20;4.50;;;;;;;21.52;72.35;102070.66;5029894;28;20029;-78
2023/07/10 07:32:22;;;;;;;11.82;4.63;;;;;;;21.85;69.99;102075.25;5031553;28;20033;-78
2023/07/10 07:34:47;;;;;;;9.55;4.78;;;;;;;22.05;67.99;102083.13;5031932;28;20033;-79
2023/07/10 07:37:13;;;;;;;9.10;4.05;;;;;;;22.04;67.51;102076.94;5030845;28;20029;-74
2023/07/10 07:39:38;;;;;;;9.23;4.00;;;;;;;22.22;67.96;102082.22;5030791;28;20024;-79
2023/07/10 07:42:05;;;;;;;12.40;4.10;;;;;;;22.55;66.92;102077.84;5016323;28;20061;-79
2023/07/10 07:44:31;;;;;;;9.50;4.03;;;;;;;22.75;65.66;102081.09;5027397;28;20068;-79
2023/07/10 07:46:57;;;;;;;8.75;4.43;;;;;;;22.94;64.02;102075.50;5031289;28;20025;-79
2023/07/10 07:49:24;;;;;;;8.13;3.58;;;;;;;23.26;63.19;102076.56;5028385;28;20028;-78
2023/07/10 07:51:51;;;;;;;7.03;3.70;;;;;;;23.29;62.29;102066.31;5029139;28;20025;-79
2023/07/10 07:54:18;;;;;;;9.88;3.65;;;;;;;23.38;60.62;102072.53;5037879;28;20021;-80
2023/07/10 07:56:44;;;;;;;9.40;3.33;;;;;;;23.55;59.09;102063.47;5027994;28;20033;-78
2023/07/10 07:59:10;;;;;;;7.53;3.00;;;;;;;23.63;60.04;102059.97;5025748;28;20028;-79
2023/07/10 08:01:35;;;;;;;8.90;3.30;;;;;;;23.90;59.63;102058.75;5029039;28;20021;-79
2023/07/10 08:04:01;;;;;;;8.38;3.00;;;;;;;24.05;57.09;102051.66;5029094;28;20067;-81
2023/07/10 08:06:33;;;;;;;7.22;2.75;;;;;;;24.36;59.25;102059.81;5028404;28;20033;-81
2023/07/10 08:09:00;;;;;;;8.05;3.08;;;;;;;24.68;55.87;102050.75;5029838;28;20096;-81
2023/07/10 08:11:26;;;;;;;10.00;2.80;;;;;;;24.92;55.86;102042.53;5026036;28;20036;-81
2023/07/10 08:13:51;;;;;;;9.80;3.03;;;;;;;25.21;54.32;102043.69;5021897;28;20099;-80
2023/07/10 08:16:18;;;;;;;6.40;2.55;;;;;;;25.39;52.43;102055.00;5034671;28;20039;-80
2023/07/10 08:18:44;;;;;;;7.63;2.72;;;;;;;25.52;50.77;102057.09;5029236;28;20053;-80
2023/07/10 08:21:14;;;;;;;7.38;2.40;;;;;;;25.40;50.60;102051.28;5030079;28;20107;-78
2023/07/10 08:23:39;;;;;;;8.57;2.80;;;;;;;25.55;50.29;102054.03;5030452;28;20033;-79
2023/07/10 08:26:06;;;;;;;6.70;2.42;;;;;;;25.86;50.10;102053.94;5028860;28;20033;-78
2023/07/10 08:28:34;;;;;;;10.50;2.25;;;;;;;25.97;51.41;102055.31;5029083;28;20036;-78
2023/07/10 08:31:00;;;;;;;11.05;2.70;;;;;;;26.06;47.91;102057.78;5022771;28;20136;-78
2023/07/10 08:33:26;;;;;;;6.45;2.30;;;;;;;26.31;47.99;102060.16;5009501;28;20101;-79
2023/07/10 08:35:54;;;;;;;8.07;2.70;;;;;;;26.44;47.79;102061.22;5017753;28;20013;-78
2023/07/10 08:38:19;;;;;;;8.57;2.90;;;;;;;26.35;48.45;102059.63;5028436;28;20034;-78
2023/07/10 08:40:47;;;;;;;8.65;3.08;;;;;;;26.71;47.57;102056.97;5029257;28;20437;-79
2023/07/10 08:43:34;;;;;;;5.70;2.40;;;;;;;26.89;50.14;102050.31;5029822;28;20094;-79
2023/07/10 08:46:10;;;;;;;7.90;2.58;;;;;;;26.97;47.07;102051.03;5061346;28;20056;-79
2023/07/10 08:48:36;;;;;;;6.32;2.13;;;;;;;26.91;46.03;102046.38;5017634;28;20104;-79
2023/07/10 08:51:12;;;;;;;5.97;2.30;;;;;;;26.99;44.42;102049.00;5010360;28;20526;-79
2023/07/10 08:53:41;;;;;;;8.32;2.05;;;;;;;27.12;44.83;102048.28;5016900;28;20021;-79
2023/07/10 08:56:26;;;;;;;6.35;2.00;;;;;;;27.42;45.60;102044.41;5039685;28;20028;-79
2023/07/10 08:59:01;;;;;;;4.45;1.88;;;;;;;27.62;43.30;102046.44;5029857;28;20048;-79
2023/07/10 09:01:35;;;;;;;8.38;2.13;;;;;;;27.81;44.77;102047.63;5038743;28;20481;-79
2023/07/10 09:04:04;;;;;;;9.07;2.55;;;;;;;27.73;44.11;102048.63;5048026;28;20571;-79
2023/07/10 09:06:40;;;;;;;8.18;2.38;;;;;;;27.96;43.32;102051.88;5029630;28;20068;-79
2023/07/10 09:09:22;;;;;;;6.75;2.45;;;;;;;27.94;44.41;102058.53;5028574;28;20279;-78
2023/07/10 09:11:48;;;;;;;5.57;2.15;;;;;;;28.13;43.79;102052.44;5027985;28;20108;-79
2023/07/10 09:14:34;;;;;;;5.38;2.20;;;;;;;28.24;43.42;102054.59;5029962;28;20112;-79
2023/07/10 09:17:00;;;;;;;7.63;2.17;;;;;;;28.38;42.52;102047.34;5029164;28;20037;-79
2023/07/10 09:19:26;;;;;;;6.68;2.15;;;;;;;28.50;42.86;102045.75;5029141;28;20099;-79
2023/07/10 09:21:51;;;;;;;6.43;2.00;;;;;;;28.48;43.55;102045.13;5060270;28;20030;-79
2023/07/10 09:24:22;;;;;;;7.22;2.17;;;;;;;28.33;43.28;102047.97;5027172;28;20037;-78
2023/07/10 09:26:49;;;;;;;5.63;2.13;;;;;;;28.48;42.49;102047.84;5028386;28;20029;-78
2023/07/10 09:29:17;;;;;;;7.65;2.22;;;;;;;28.29;42.74;102051.28;5026714;28;20037;-78
2023/07/10 09:32:15;;;;;;;6.68;2.60;;;;;;;28.37;44.58;102059.22;5028464;28;20448;-78
2023/07/10 09:34:46;;;;;;;5.75;2.35;;;;;;;27.74;43.28;102055.72;5027256;28;20029;-78
2023/07/10 09:37:14;;;;;;;5.38;2.40;;;;;;;27.90;43.20;102047.28;5028204;28;20036;-79
2023/07/10 09:39:40;;;;;;;6.75;2.67;;;;;;;27.52;41.63;102046.75;5029205;28;20476;-78
2023/07/10 09:42:13;;;;;;;7.40;2.22;;;;;;;27.55;44.92;102048.25;5033119;28;20034;-79
2023/07/10 09:44:44;;;;;;;6.45;2.20;;;;;;;27.57;43.47;102057.00;5032410;28;20060;-78
2023/07/10 09:47:12;;;;;;;6.30;2.00;;;;;;;27.45;42.44;102054.81;5033146;28;20026;-78
2023/07/10 09:49:56;;;;;;;8.45;2.40;;;;;;;27.34;44.85;102057.22;5032342;28;20120;-78
2023/07/10 09:52:40;;;;;;;8.32;2.10;;;;;;;27.16;43.60;102054.97;5042226;28;20017;-78
2023/07/10 09:55:11;;;;;;;7.05;2.13;;;;;;;26.87;42.76;102061.31;5028957;28;20034;-79
2023/07/10 09:57:55;;;;;;;6.55;1.88;;;;;;;26.90;43.94;102057.38;5023806;28;20053;-79
2023/07/10 10:00:20;;;;;;;6.32;1.90;;;;;;;27.13;42.79;102053.50;5023090;28;20072;-79
2023/07/10 10:02:52;;;;;;;8.90;2.08;;;;;;;27.32;43.57;102060.13;5024415;28;20421;-78
2023/07/10 10:05:21;;;;;;;5.38;1.73;;;;;;;27.75;42.15;102054.69;5023324;28;20030;-78
2023/07/10 10:07:49;;;;;;;6.65;2.10;;;;;;;27.73;43.10;102045.94;5025918;28;20092;-78
2023/07/10 10:10:31;;;;;;;6.72;1.80;;;;;;;27.98;43.43;102041.69;5032457;28;20038;-78
2023/07/10 10:13:15;;;;;;;10.50;3.10;;;;;;;28.09;42.91;102043.03;5020143;28;20032;-79
2023/07/10 10:15:51;;;;;;;11.15;2.00;;;;;;;28.13;43.33;102047.00;5031118;28;20464;-78
2023/07/10 10:18:38;;;;;;;8.05;1.80;;;;;;;28.39;41.05;102046.31;5031898;28;20030;-78
2023/07/10 10:21:05;;;;;;;4.40;1.45;;;;;;;28.40;38.85;102043.41;5032497;28;20485;-78
2023/07/10 10:23:36;;;;;;;7.13;2.25;;;;;;;28.26;39.94;102040.84;5031300;28;20035;-78
2023/07/10 10:26:27;;;;;;;5.45;2.00;;;;;;;28.54;41.24;102038.91;5022290;28;20509;-79
2023/07/10 10:29:19;;;;;;;6.45;2.08;;;;;;;28.35;41.26;102034.22;5028040;28;20497;-79
2023/07/10 10:31:52;;;;;;;6.57;2.17;;;;;;;28.06;40.64;102038.84;5028310;28;20128;-79
2023/07/10 10:34:39;;;;;;;6.20;1.92;;;;;;;27.90;40.62;102044.56;5029960;28;20033;-79
2023/07/10 10:37:18;;;;;;;6.57;1.92;;;;;;;27.89;40.73;102044.78;5032225;28;20086;-78
2023/07/10 10:40:22;;;;;;;5.53;1.95;;;;;;;28.04;42.62;102042.81;5030757;28;20014;-78
2023/07/10 10:43:03;;;;;;;7.60;1.65;;;;;;;27.54;42.95;102046.56;5019987;28;20109;-79
2023/07/10 10:45:42;;;;;;;7.68;2.00;;;;;;;27.41;42.36;102031.09;5032146;28;20824;-79
2023/07/10 10:48:20;;;;;;;7.50;2.08;;;;;;;26.93;41.85;102038.09;5027405;28;20486;-80
2023/07/10 10:51:22;;;;;;;5.20;1.90;;;;;;;26.75;42.78;102044.75;5027287;28;20022;-79
2023/07/10 10:53:59;;;;;;;6.00;2.03;;;;;;;27.07;42.22;102045.31;5026458;28;20473;-79
2023/07/10 10:56:32;;;;;;;5.82;1.80;;;;;;;27.53;42.89;102050.31;5040824;28;20025;-78
2023/07/10 10:59:00;;;;;;;5.53;2.00;;;;;;;27.85;41.80;102048.91;5032380;28;20499;-79
2023/07/10 11:01:37;;;;;;;5.25;2.05;;;;;;;28.26;41.03;102052.50;5028091;28;20125;-79
2023/07/10 11:04:15;;;;;;;6.38;2.30;;;;;;;28.13;41.69;102052.44;5031568;28;20045;-79
2023/07/10 11:06:55;;;;;;;11.35;2.38;;;;;;;28.02;41.38;102055.69;5031389;28;20032;-78
2023/07/10 11:09:26;;;;;;;6.40;1.98;;;;;;;28.16;40.79;102056.59;5030591;28;20389;-78
2023/07/10 11:11:53;;;;;;;8.68;2.03;;;;;;;28.02;41.13;102056.53;5029648;28;20034;-79
2023/07/10 11:14:20;;;;;;;7.00;2.35;;;;;;;27.80;41.11;102045.97;5030020;28;20477;-79
2023/07/10 11:16:46;;;;;;;7.13;2.28;;;;;;;27.62;40.40;102054.56;5031201;28;20049;-79
2023/07/10 11:19:18;;;;;;;7.38;1.95;;;;;;;27.31;41.06;102046.81;5023317;28;20484;-78
2023/07/10 11:21:43;;;;;;;4.38;1.75;;;;;;;27.55;40.07;102042.84;5028543;28;20516;-79
2023/07/10 11:24:25;;;;;;;9.73;2.42;;;;;;;27.50;39.47;102035.31;5031515;28;20025;-80
2023/07/10 11:26:51;;;;;;;6.85;2.10;;;;;;;27.61;41.73;102032.09;5030986;28;20038;-80